createdAt,value
2023-03-13T00:02:07.267Z,1.10
2023-03-13T00:04:38.415Z,1.10
2023-03-13T00:07:10.417Z,1.00
2023-03-13T00:09:41.397Z,1.00
2023-03-13T00:12:12.240Z,1.00
2023-03-13T00:14:45.772Z,1.00
2023-03-13T00:17:16.877Z,1.00
2023-03-13T00:19:48.033Z,1.00
2023-03-13T00:22:21.817Z,1.00
2023-03-13T00:24:53.457Z,1.00
2023-03-13T00:27:24.056Z,1.00
2023-03-13T00:29:58.962Z,0.90
2023-03-13T00:32:29.968Z,0.90
2023-03-13T00:35:00.955Z,0.90
2023-03-13T00:37:31.954Z,0.90
2023-03-13T00:40:04.623Z,0.90
2023-03-13T00:42:35.139Z,0.90
2023-03-13T00:45:09.900Z,0.80
2023-03-13T00:47:41.510Z,0.90
2023-03-13T00:50:15.066Z,0.80
2023-03-13T00:52:45.697Z,0.80
2023-03-13T00:55:16.699Z,0.70
2023-03-13T00:57:48.137Z,0.70
2023-03-13T01:00:22.826Z,0.70
2023-03-13T01:02:54.088Z,0.70
2023-03-13T01:05:25.343Z,0.70
2023-03-13T01:07:56.275Z,0.70
2023-03-13T01:10:27.243Z,0.60
2023-03-13T01:12:57.833Z,0.70
2023-03-13T01:15:31.480Z,0.60
2023-03-13T01:18:02.378Z,0.60
2023-03-13T01:20:33.872Z,0.60
2023-03-13T01:23:04.334Z,0.50
2023-03-13T01:25:35.167Z,0.60
2023-03-13T01:28:06.232Z,0.50
2023-03-13T01:30:40.304Z,0.50
2023-03-13T01:33:13.296Z,0.50
2023-03-13T01:35:44.664Z,0.50
2023-03-13T01:38:17.632Z,0.50
2023-03-13T01:40:50.027Z,0.40
2023-03-13T01:43:26.809Z,0.40
2023-03-13T01:46:05.937Z,0.50
2023-03-13T01:48:55.511Z,0.40
2023-03-13T01:51:29.202Z,0.40
2023-03-13T01:54:04.955Z,0.40
2023-03-13T01:56:41.022Z,0.40
2023-03-13T01:59:12.980Z,0.40
2023-03-13T02:01:48.434Z,0.40
2023-03-13T02:04:20.692Z,0.50
2023-03-13T02:06:52.294Z,0.40
2023-03-13T02:09:28.668Z,0.40
2023-03-13T02:12:03.250Z,0.40
2023-03-13T02:14:36.317Z,0.40
2023-03-13T02:17:10.731Z,0.40
2023-03-13T02:19:44.952Z,0.40
2023-03-13T02:22:22.518Z,0.40
2023-03-13T02:24:55.142Z,0.40
2023-03-13T02:27:28.638Z,0.40
2023-03-13T02:30:00.756Z,0.40
2023-03-13T02:32:33.284Z,0.40
2023-03-13T02:35:06.889Z,0.40
2023-03-13T02:37:38.847Z,0.40
2023-03-13T02:40:14.190Z,0.40
2023-03-13T02:42:50.045Z,0.40
2023-03-13T02:45:21.325Z,0.40
2023-03-13T02:47:53.971Z,0.40
2023-03-13T02:50:24.744Z,0.30
2023-03-13T02:52:58.259Z,0.30
2023-03-13T02:55:31.683Z,0.40
2023-03-13T02:58:05.291Z,0.40
2023-03-13T03:00:39.777Z,0.40
2023-03-13T03:03:11.591Z,0.40
2023-03-13T03:05:42.149Z,0.40
2023-03-13T03:08:13.227Z,0.50
2023-03-13T03:10:44.224Z,0.40
2023-03-13T03:13:17.952Z,0.40
2023-03-13T03:15:48.504Z,0.40
2023-03-13T03:18:19.676Z,0.40
2023-03-13T03:20:50.776Z,0.40
2023-03-13T03:23:22.457Z,0.40
2023-03-13T03:25:52.905Z,0.40
2023-03-13T03:28:26.685Z,0.50
2023-03-13T03:30:57.607Z,0.50
2023-03-13T03:33:28.797Z,0.50
2023-03-13T03:36:02.605Z,0.60
2023-03-13T03:38:35.335Z,0.50
2023-03-13T03:41:06.328Z,0.60
2023-03-13T03:43:40.795Z,0.60
2023-03-13T03:46:12.741Z,0.60
2023-03-13T03:48:43.964Z,0.60
2023-03-13T03:51:16.272Z,0.60
2023-03-13T03:53:50.375Z,0.70
2023-03-13T03:56:21.212Z,0.70
2023-03-13T03:58:59.802Z,0.70
2023-03-13T04:02:06.075Z,0.80
2023-03-13T04:04:38.936Z,0.80
2023-03-13T04:07:13.979Z,0.80
2023-03-13T04:09:45.408Z,0.90
2023-03-13T04:12:24.807Z,0.90
2023-03-13T04:15:00.283Z,1.00
2023-03-13T04:17:31.386Z,1.00
2023-03-13T04:20:02.925Z,1.00
2023-03-13T04:22:34.669Z,1.10
2023-03-13T04:25:06.280Z,1.20
2023-03-13T04:27:37.154Z,1.20
2023-03-13T04:30:12.809Z,1.30
2023-03-13T04:32:43.374Z,1.30
2023-03-13T04:35:47.701Z,1.40
2023-03-13T04:38:48.442Z,1.40
2023-03-13T04:41:58.737Z,1.50
2023-03-13T04:44:58.716Z,1.50
2023-03-13T04:47:49.121Z,1.60
2023-03-13T04:50:39.871Z,1.60
2023-03-13T04:53:31.630Z,1.70
2023-03-13T04:56:41.227Z,1.70
2023-03-13T04:59:32.234Z,1.80
2023-03-13T05:02:12.640Z,1.80
2023-03-13T05:05:04.913Z,1.90
2023-03-13T05:07:54.205Z,1.90
2023-03-13T05:10:40.876Z,2.00
2023-03-13T05:13:49.672Z,2.00
2023-03-13T05:16:39.817Z,2.10
2023-03-13T05:19:29.871Z,2.10
2023-03-13T05:22:23.343Z,2.10
2023-03-13T05:25:12.614Z,2.20
2023-03-13T05:27:55.460Z,2.20
2023-03-13T05:30:29.796Z,2.20
2023-03-13T05:33:24.539Z,2.20
2023-03-13T05:36:27.453Z,2.30
2023-03-13T05:39:21.903Z,2.30
2023-03-13T05:41:52.748Z,2.30
2023-03-13T05:44:43.877Z,2.30
2023-03-13T05:47:23.214Z,2.30
2023-03-13T05:50:06.349Z,2.40
2023-03-13T05:52:59.990Z,2.40
2023-03-13T05:55:42.713Z,2.40
2023-03-13T05:58:33.465Z,2.50
2023-03-13T06:01:19.699Z,2.40
2023-03-13T06:04:03.971Z,2.50
2023-03-13T06:06:39.062Z,2.50
2023-03-13T06:09:12.009Z,2.60
2023-03-13T06:11:46.688Z,2.70
2023-03-13T06:14:18.151Z,2.70
2023-03-13T06:17:08.607Z,2.70
2023-03-13T06:19:39.190Z,2.80
2023-03-13T06:22:10.301Z,2.80
2023-03-13T06:24:40.987Z,2.80
2023-03-13T06:27:15.563Z,2.90
2023-03-13T06:29:46.265Z,2.90
2023-03-13T06:32:20.585Z,2.90
2023-03-13T06:34:54.134Z,2.90
2023-03-13T06:37:25.649Z,3.00
2023-03-13T06:39:56.730Z,3.00
2023-03-13T06:42:30.752Z,3.10
2023-03-13T06:45:03.847Z,3.10
2023-03-13T06:47:35.255Z,3.10
2023-03-13T06:50:07.359Z,3.10
2023-03-13T06:52:43.953Z,3.10
2023-03-13T06:55:16.372Z,3.20
2023-03-13T06:57:52.885Z,3.20
2023-03-13T07:00:24.672Z,3.20
2023-03-13T07:02:56.636Z,3.30
2023-03-13T07:05:29.142Z,3.30
2023-03-13T07:08:00.693Z,3.30
2023-03-13T07:10:31.889Z,3.40
2023-03-13T07:13:05.923Z,3.40
2023-03-13T07:15:36.770Z,3.40
2023-03-13T07:18:08.873Z,3.40
2023-03-13T07:20:40.334Z,3.40
2023-03-13T07:23:11.811Z,3.40
2023-03-13T07:25:42.751Z,3.40
2023-03-13T07:28:17.658Z,3.50
2023-03-13T07:30:48.975Z,3.50
2023-03-13T07:33:20.958Z,3.60
2023-03-13T07:35:52.354Z,3.60
2023-03-13T07:38:23.920Z,3.60
2023-03-13T07:40:56.573Z,3.60
2023-03-13T07:43:31.999Z,3.60
2023-03-13T07:46:04.507Z,3.70
2023-03-13T07:48:36.481Z,3.70
2023-03-13T07:51:09.206Z,3.70
2023-03-13T07:53:41.444Z,3.80
2023-03-13T07:56:14.139Z,3.80
2023-03-13T07:58:48.217Z,3.80
2023-03-13T08:01:22.574Z,3.80
2023-03-13T08:03:56.745Z,3.90
2023-03-13T08:06:29.323Z,3.90
2023-03-13T08:09:04.594Z,4.00
2023-03-13T08:11:35.507Z,4.00
2023-03-13T08:14:10.090Z,4.00
2023-03-13T08:16:41.574Z,4.10
2023-03-13T08:19:14.767Z,4.10
2023-03-13T08:21:45.666Z,4.10
2023-03-13T08:24:16.976Z,4.10
2023-03-13T08:26:47.755Z,4.10
2023-03-13T08:29:21.803Z,4.10
2023-03-13T08:31:53.961Z,4.10
2023-03-13T08:34:24.900Z,4.20
2023-03-13T08:36:57.298Z,4.20
2023-03-13T08:39:32.424Z,4.30
2023-03-13T08:42:03.059Z,4.30
2023-03-13T08:44:36.924Z,4.30
2023-03-13T08:47:09.351Z,4.40
2023-03-13T08:49:40.471Z,4.50
2023-03-13T08:52:11.356Z,4.50
2023-03-13T08:54:42.385Z,4.60
2023-03-13T08:57:12.975Z,4.60
2023-03-13T08:59:47.211Z,4.60
2023-03-13T09:02:20.467Z,4.70
2023-03-13T09:04:52.469Z,4.70
2023-03-13T09:07:23.316Z,4.70
2023-03-13T09:09:54.149Z,4.80
2023-03-13T09:12:30.677Z,4.90
2023-03-13T09:15:04.738Z,4.90
2023-03-13T09:17:35.396Z,5.00
2023-03-13T09:20:06.753Z,5.10
2023-03-13T09:22:37.224Z,5.10
2023-03-13T09:25:08.492Z,5.20
2023-03-13T09:27:39.719Z,5.30
2023-03-13T09:30:14.050Z,5.30
2023-03-13T09:32:44.494Z,5.30
2023-03-13T09:35:15.273Z,5.30
2023-03-13T09:37:45.646Z,5.40
2023-03-13T09:40:18.781Z,5.40
2023-03-13T09:42:50.797Z,5.40
2023-03-13T09:45:31.565Z,5.40
2023-03-13T09:48:05.734Z,5.50
2023-03-13T09:50:37.125Z,5.50
2023-03-13T09:53:10.637Z,5.50
2023-03-13T09:55:41.616Z,5.60
2023-03-13T09:58:16.754Z,5.60
2023-03-13T10:00:51.575Z,5.60
2023-03-13T10:03:26.586Z,5.70
2023-03-13T10:05:59.071Z,5.70
2023-03-13T10:08:30.327Z,5.70
2023-03-13T10:11:06.260Z,5.80
2023-03-13T10:13:39.432Z,5.80
2023-03-13T10:16:19.522Z,5.80
2023-03-13T10:18:51.613Z,6.00
2023-03-13T10:21:23.752Z,6.00
2023-03-13T10:23:56.776Z,6.00
2023-03-13T10:26:29.051Z,6.00
2023-03-13T10:29:00.096Z,6.10
2023-03-13T10:31:35.180Z,6.20
2023-03-13T10:34:12.569Z,6.20
2023-03-13T10:36:45.037Z,6.20
2023-03-13T10:39:18.243Z,6.30
2023-03-13T10:41:49.596Z,6.40
2023-03-13T10:44:21.017Z,6.40
2023-03-13T10:46:54.508Z,6.40
2023-03-13T10:49:26.207Z,6.40
2023-03-13T10:51:57.769Z,6.40
2023-03-13T10:54:28.916Z,6.40
2023-03-13T10:57:13.778Z,6.50
2023-03-13T10:59:46.543Z,6.50
2023-03-13T11:02:26.832Z,6.60
2023-03-13T11:04:57.505Z,6.60
2023-03-13T11:07:32.733Z,6.60
2023-03-13T11:10:05.167Z,6.70
2023-03-13T11:12:39.111Z,6.60
2023-03-13T11:15:16.369Z,6.70
2023-03-13T11:17:50.859Z,6.70
2023-03-13T11:20:25.724Z,6.70
2023-03-13T11:23:03.940Z,6.80
2023-03-13T11:25:38.487Z,6.90
2023-03-13T11:28:15.918Z,7.00
2023-03-13T11:30:58.901Z,7.10
2023-03-13T11:33:38.708Z,7.10
2023-03-13T11:36:13.714Z,7.10
2023-03-13T11:38:46.355Z,7.10
2023-03-13T11:41:21.513Z,7.20
2023-03-13T11:43:58.128Z,7.20
2023-03-13T11:46:32.143Z,7.20
2023-03-13T11:49:17.926Z,7.20
2023-03-13T11:51:58.315Z,7.30
2023-03-13T11:54:41.275Z,7.30
2023-03-13T11:57:15.467Z,7.40
2023-03-13T11:59:50.044Z,7.50
2023-03-13T12:02:24.413Z,7.60
2023-03-13T12:04:57.654Z,7.60
2023-03-13T12:07:33.176Z,7.70
2023-03-13T12:10:05.031Z,7.70
2023-03-13T12:12:38.334Z,7.70
2023-03-13T12:15:13.582Z,7.70
2023-03-13T12:17:46.166Z,7.80
2023-03-13T12:20:22.464Z,7.80
2023-03-13T12:23:02.215Z,7.90
2023-03-13T12:25:38.064Z,7.90
2023-03-13T12:28:18.586Z,8.00
2023-03-13T12:30:52.294Z,8.10
2023-03-13T12:33:24.773Z,8.20
2023-03-13T12:36:00.132Z,8.20
2023-03-13T12:38:37.602Z,8.30
2023-03-13T12:41:14.168Z,8.40
2023-03-13T12:44:00.586Z,8.40
2023-03-13T12:46:49.115Z,8.50
2023-03-13T12:49:35.682Z,8.60
2023-03-13T12:52:23.850Z,8.60
2023-03-13T12:55:10.190Z,8.60
2023-03-13T12:57:59.018Z,8.60
2023-03-13T13:00:31.679Z,8.60
2023-03-13T13:03:08.691Z,8.60
2023-03-13T13:05:39.485Z,8.60
2023-03-13T13:08:27.106Z,8.70
2023-03-13T13:11:21.556Z,8.70
2023-03-13T13:13:53.759Z,8.70
2023-03-13T13:16:25.013Z,8.70
2023-03-13T13:18:55.865Z,8.70
2023-03-13T13:21:26.972Z,8.80
2023-03-13T13:24:17.923Z,8.80
2023-03-13T13:26:54.229Z,8.80
2023-03-13T13:29:39.978Z,8.80
2023-03-13T13:32:16.840Z,8.80
2023-03-13T13:35:06.732Z,8.80
2023-03-13T13:37:37.497Z,8.80
2023-03-13T13:40:22.950Z,8.80
2023-03-13T13:42:56.830Z,8.80
2023-03-13T13:45:28.826Z,8.80
2023-03-13T13:48:14.362Z,8.70
2023-03-13T13:50:59.946Z,8.70
2023-03-13T13:53:34.996Z,8.70
2023-03-13T13:56:10.507Z,8.60
2023-03-13T13:58:49.442Z,8.60
2023-03-13T14:01:20.283Z,8.60
2023-03-13T14:03:54.423Z,8.60
2023-03-13T14:06:27.763Z,8.50
2023-03-13T14:09:00.103Z,8.50
2023-03-13T14:11:33.188Z,8.50
2023-03-13T14:14:17.394Z,8.40
2023-03-13T14:16:49.378Z,8.40
2023-03-13T14:19:27.671Z,8.40
2023-03-13T14:22:05.835Z,8.40
2023-03-13T14:24:36.738Z,8.40
2023-03-13T14:27:17.432Z,8.40
2023-03-13T14:30:04.883Z,8.40
2023-03-13T14:32:38.527Z,8.40
2023-03-13T14:35:10.519Z,8.30
2023-03-13T14:37:44.894Z,8.40
2023-03-13T14:40:22.990Z,8.40
2023-03-13T14:42:54.731Z,8.40
2023-03-13T14:45:27.173Z,8.40
2023-03-13T14:48:04.158Z,8.40
2023-03-13T14:50:34.716Z,8.40
2023-03-13T14:53:07.008Z,8.40
2023-03-13T14:55:41.264Z,8.40
2023-03-13T14:58:28.235Z,8.40
2023-03-13T15:00:59.435Z,8.40
2023-03-13T15:03:35.393Z,8.40
2023-03-13T15:06:10.515Z,8.40
2023-03-13T15:08:42.439Z,8.40
2023-03-13T15:11:21.479Z,8.40
2023-03-13T15:13:52.582Z,8.40
2023-03-13T15:16:24.172Z,8.40
2023-03-13T15:18:58.228Z,8.40
2023-03-13T15:21:29.860Z,8.40
2023-03-13T15:24:02.836Z,8.40
2023-03-13T15:26:33.401Z,8.40
2023-03-13T15:29:04.126Z,8.40
2023-03-13T15:31:35.224Z,8.40
2023-03-13T15:34:09.794Z,8.50
2023-03-13T15:36:40.917Z,8.40
2023-03-13T15:39:13.967Z,8.50
2023-03-13T15:41:44.428Z,8.50
2023-03-13T15:44:15.338Z,8.50
2023-03-13T15:46:46.411Z,8.40
2023-03-13T15:49:19.893Z,8.50
2023-03-13T15:51:50.969Z,8.40
2023-03-13T15:54:21.915Z,8.50
2023-03-13T15:56:53.086Z,8.50
2023-03-13T15:59:23.917Z,8.50
2023-03-13T16:01:54.475Z,8.50
2023-03-13T16:04:28.015Z,8.50
2023-03-13T16:06:58.761Z,8.50
2023-03-13T16:09:29.586Z,8.50
2023-03-13T16:12:00.245Z,8.50
2023-03-13T16:14:31.096Z,8.50
2023-03-13T16:17:02.215Z,8.60
2023-03-13T16:19:35.779Z,8.60
2023-03-13T16:22:06.435Z,8.60
2023-03-13T16:24:37.426Z,8.60
2023-03-13T16:27:13.397Z,8.60
2023-03-13T16:29:45.199Z,8.60
2023-03-13T16:32:16.806Z,8.60
2023-03-13T16:34:50.215Z,8.60
2023-03-13T16:37:21.785Z,8.60
2023-03-13T16:39:52.707Z,8.60
2023-03-13T16:42:23.333Z,8.60
2023-03-13T16:44:54.938Z,8.70
2023-03-13T16:47:27.445Z,8.70
2023-03-13T16:50:01.521Z,8.70
2023-03-13T16:52:31.966Z,8.70
2023-03-13T16:55:03.444Z,8.70
2023-03-13T16:57:34.437Z,8.70
2023-03-13T17:00:07.841Z,8.70
2023-03-13T17:02:39.350Z,8.70
2023-03-13T17:05:16.034Z,8.70
2023-03-13T17:07:47.543Z,8.70
2023-03-13T17:10:21.063Z,8.70
2023-03-13T17:12:51.675Z,8.70
2023-03-13T17:15:23.072Z,8.70
2023-03-13T17:17:54.494Z,8.70
2023-03-13T17:20:28.921Z,8.80
2023-03-13T17:23:01.246Z,8.70
2023-03-13T17:25:33.449Z,8.70
2023-03-13T17:28:06.185Z,8.80
2023-03-13T17:30:36.960Z,8.80
2023-03-13T17:33:07.375Z,8.80
2023-03-13T17:35:40.881Z,8.80
2023-03-13T17:38:12.758Z,8.70
2023-03-13T17:40:44.246Z,8.80
2023-03-13T17:43:14.923Z,8.70
2023-03-13T17:45:46.306Z,8.80
2023-03-13T17:48:16.685Z,8.80
2023-03-13T17:50:50.268Z,8.80
2023-03-13T17:53:20.841Z,8.80
2023-03-13T17:55:51.716Z,8.80
2023-03-13T17:58:22.143Z,8.80
2023-03-13T18:00:53.210Z,8.80
2023-03-13T18:03:24.447Z,8.80
2023-03-13T18:05:58.491Z,8.80
2023-03-13T18:08:28.966Z,8.80
2023-03-13T18:10:59.820Z,8.80
2023-03-13T18:13:30.238Z,8.80
2023-03-13T18:16:01.148Z,8.80
2023-03-13T18:18:31.748Z,8.80
2023-03-13T18:21:06.118Z,8.80
2023-03-13T18:23:36.677Z,8.80
2023-03-13T18:26:15.784Z,8.80
2023-03-13T18:28:46.237Z,8.80
2023-03-13T18:31:17.730Z,8.80
2023-03-13T18:33:48.403Z,8.80
2023-03-13T18:36:23.195Z,8.80
2023-03-13T18:38:54.332Z,8.80
2023-03-13T18:41:25.934Z,8.80
2023-03-13T18:43:57.037Z,8.80
2023-03-13T18:46:30.718Z,8.80
2023-03-13T18:49:02.030Z,8.80
2023-03-13T18:51:36.270Z,8.80
2023-03-13T18:54:07.797Z,8.80
2023-03-13T18:56:39.245Z,8.80
2023-03-13T18:59:13.507Z,8.80
2023-03-13T19:01:47.298Z,8.70
2023-03-13T19:04:18.454Z,8.80
2023-03-13T19:06:53.486Z,8.80
2023-03-13T19:09:42.623Z,8.80
2023-03-13T19:12:15.700Z,8.80
2023-03-13T19:14:46.312Z,8.80
2023-03-13T19:17:23.184Z,8.80
2023-03-13T19:19:57.452Z,8.80
2023-03-13T19:22:31.698Z,8.80
2023-03-13T19:25:03.029Z,8.80
2023-03-13T19:27:34.277Z,8.80
2023-03-13T19:30:05.776Z,8.80
2023-03-13T19:32:37.936Z,8.80
2023-03-13T19:35:09.146Z,8.80
2023-03-13T19:37:42.538Z,8.80
2023-03-13T19:40:19.094Z,8.80
2023-03-13T19:42:50.207Z,8.70
2023-03-13T19:45:22.318Z,8.80
2023-03-13T19:47:53.933Z,8.80
2023-03-13T19:50:27.818Z,8.80
2023-03-13T19:53:01.266Z,8.80
2023-03-13T19:55:31.869Z,8.80
2023-03-13T19:58:04.232Z,8.80
2023-03-13T20:00:35.724Z,8.80
2023-03-13T20:03:07.201Z,8.80
2023-03-13T20:05:37.816Z,8.80
2023-03-13T20:08:11.304Z,8.80
2023-03-13T20:10:41.747Z,8.80
2023-03-13T20:13:12.589Z,8.80
2023-03-13T20:15:43.039Z,8.80
2023-03-13T20:18:16.924Z,8.80
2023-03-13T20:20:47.463Z,8.80
2023-03-13T20:23:21.198Z,8.80
2023-03-13T20:25:51.791Z,8.80
2023-03-13T20:28:22.655Z,8.80
2023-03-13T20:30:53.068Z,8.80
2023-03-13T20:33:24.028Z,8.80
2023-03-13T20:35:54.802Z,8.80
2023-03-13T20:38:28.344Z,8.80
2023-03-13T20:40:59.842Z,8.80
2023-03-13T20:43:31.356Z,8.80
2023-03-13T20:46:02.647Z,8.80
2023-03-13T20:48:34.736Z,8.80
2023-03-13T20:51:05.173Z,8.80
2023-03-13T20:53:40.570Z,8.80
2023-03-13T20:56:11.963Z,8.80
2023-03-13T20:58:43.533Z,8.80
2023-03-13T21:01:14.125Z,8.80
2023-03-13T21:03:45.067Z,8.80
2023-03-13T21:06:16.912Z,8.80
2023-03-13T21:08:51.573Z,8.80
2023-03-13T21:11:23.159Z,8.80
2023-03-13T21:13:54.684Z,8.80
2023-03-13T21:16:25.476Z,8.80
2023-03-13T21:18:56.558Z,8.80
2023-03-13T21:21:29.373Z,8.80
2023-03-13T21:24:03.152Z,8.80
2023-03-13T21:26:34.401Z,8.90
2023-03-13T21:29:06.591Z,8.90
2023-03-13T21:31:38.924Z,8.80
2023-03-13T21:34:10.948Z,8.80
2023-03-13T21:36:41.764Z,8.80
2023-03-13T21:39:15.384Z,8.80
2023-03-13T21:41:45.898Z,8.80
2023-03-13T21:44:19.745Z,8.80
2023-03-13T21:46:51.907Z,8.80
2023-03-13T21:49:24.353Z,8.80
2023-03-13T21:51:56.575Z,8.80
2023-03-13T21:54:33.332Z,8.80
2023-03-13T21:57:04.625Z,8.80
2023-03-13T21:59:35.361Z,8.80
2023-03-13T22:02:06.080Z,8.80
2023-03-13T22:04:36.878Z,8.80
2023-03-13T22:07:07.357Z,8.80
2023-03-13T22:09:41.015Z,8.80
2023-03-13T22:12:11.544Z,8.80
2023-03-13T22:14:43.268Z,8.80
2023-03-13T22:17:17.919Z,8.80
2023-03-13T22:19:50.055Z,8.80
2023-03-13T22:22:22.179Z,8.80
2023-03-13T22:24:56.227Z,8.90
2023-03-13T22:27:27.117Z,8.90
2023-03-13T22:29:58.471Z,8.90
2023-03-13T22:32:30.628Z,8.90
2023-03-13T22:35:02.086Z,8.90
2023-03-13T22:37:32.547Z,8.90
2023-03-13T22:40:06.370Z,9.00
2023-03-13T22:42:39.318Z,9.00
2023-03-13T22:45:11.058Z,9.00
2023-03-13T22:47:42.230Z,9.00
2023-03-13T22:50:14.239Z,9.00
2023-03-13T22:52:44.875Z,9.00
2023-03-13T22:55:18.968Z,9.00
2023-03-13T22:57:49.705Z,9.10
2023-03-13T23:00:21.133Z,9.00
2023-03-13T23:02:52.124Z,9.10
2023-03-13T23:05:22.928Z,9.00
2023-03-13T23:07:53.426Z,9.00
2023-03-13T23:10:26.958Z,9.10
2023-03-13T23:12:57.365Z,9.10
2023-03-13T23:15:33.442Z,9.10
2023-03-13T23:18:09.401Z,9.10
2023-03-13T23:20:40.654Z,9.10
2023-03-13T23:23:11.115Z,9.10
2023-03-13T23:25:45.697Z,9.10
2023-03-13T23:28:16.390Z,9.20
2023-03-13T23:30:47.333Z,9.20
2023-03-13T23:33:17.798Z,9.20
2023-03-13T23:35:49.358Z,9.20
2023-03-13T23:38:24.150Z,9.20
2023-03-13T23:40:58.559Z,9.20
2023-03-13T23:43:29.017Z,9.30
2023-03-13T23:45:59.785Z,9.20
2023-03-13T23:48:30.823Z,9.20
2023-03-13T23:51:02.385Z,9.20
2023-03-13T23:53:32.768Z,9.20
2023-03-13T23:56:06.461Z,9.20
2023-03-13T23:58:37.439Z,9.20
